Time;durP1;ratioP1;P1;durP2;ratioP2;P2;SDS_P1;SDS_P2;PMS_P1;PMS_P2;Temp;Humidity;BMP_temperature;BMP_pressure;BME280_temperature;BME280_humidity;BME280_pressure;Samples;Min_cycle;Max_cycle;Signal;HPM_P1;HPM_P2
2021/10/19 00:01:37;;;;;;;5.15;1.63;;;;;;;;;;5069942;28;20044;-66
2021/10/19 00:04:03;;;;;;;2.83;1.92;;;;;;;;;;5063847;28;20049;-66
2021/10/19 00:06:30;;;;;;;6.82;1.77;;;;;;;;;;5064537;28;20049;-66
2021/10/19 00:08:56;;;;;;;5.90;1.80;;;;;;;;;;5068753;28;20124;-66
2021/10/19 00:11:23;;;;;;;4.70;2.00;;;;;;;;;;5061507;28;20132;-66
2021/10/19 00:13:49;;;;;;;7.70;2.43;;;;;;;;;;5065105;28;20527;-66
2021/10/19 00:16:16;;;;;;;4.07;1.88;;;;;;;;;;5061862;28;20075;-66
2021/10/19 00:18:42;;;;;;;3.35;1.90;;;;;;;;;;5066402;28;20052;-66
2021/10/19 00:21:09;;;;;;;4.95;1.45;;;;;;;;;;5070912;28;20123;-66
2021/10/19 00:23:35;;;;;;;3.20;1.85;;;;;;;;;;5066933;28;20128;-66
2021/10/19 00:26:02;;;;;;;6.28;1.98;;;;;;;;;;5063250;28;20084;-67
2021/10/19 00:28:29;;;;;;;3.75;1.70;;;;;;;;;;5050316;28;20081;-66
2021/10/19 00:30:56;;;;;;;2.85;1.50;;;;;;;;;;5065329;28;20080;-66
2021/10/19 00:33:22;;;;;;;5.95;1.95;;;;;;;;;;5062564;28;20051;-66
2021/10/19 00:35:49;;;;;;;2.30;1.58;;;;;;;;;;5065775;28;20107;-66
2021/10/19 00:38:16;;;;;;;2.47;1.55;;;;;;;;;;5063015;28;20080;-66
2021/10/19 00:40:42;;;;;;;2.45;1.70;;;;;;;;;;5068221;28;20059;-66
2021/10/19 00:43:09;;;;;;;6.00;1.90;;;;;;;;;;5069086;28;20080;-66
2021/10/19 00:45:35;;;;;;;2.63;1.40;;;;;;;;;;5064100;28;20552;-66
2021/10/19 00:48:05;;;;;;;3.55;1.75;;;;;;;;;;5065527;28;20471;-66
2021/10/19 00:50:31;;;;;;;3.22;1.50;;;;;;;;;;5061531;28;20048;-66
2021/10/19 00:52:58;;;;;;;3.22;1.55;;;;;;;;;;5064978;28;20127;-66
2021/10/19 00:55:25;;;;;;;7.15;1.90;;;;;;;;;;5065859;28;20135;-66
2021/10/19 00:57:52;;;;;;;5.93;1.80;;;;;;;;;;5064294;28;20132;-66
2021/10/19 01:00:18;;;;;;;2.85;1.60;;;;;;;;;;5067098;28;20503;-66
2021/10/19 01:02:44;;;;;;;2.20;1.42;;;;;;;;;;5068528;28;20516;-65
2021/10/19 01:05:12;;;;;;;3.78;1.80;;;;;;;;;;5069104;28;20052;-66
2021/10/19 01:07:38;;;;;;;4.72;1.83;;;;;;;;;;5068293;28;20045;-66
2021/10/19 01:10:05;;;;;;;6.47;2.50;;;;;;;;;;5057380;28;20076;-65
2021/10/19 01:12:33;;;;;;;3.97;1.83;;;;;;;;;;5059280;28;20167;-66
2021/10/19 01:14:59;;;;;;;3.72;1.90;;;;;;;;;;5068947;28;20560;-66
2021/10/19 01:17:26;;;;;;;4.93;1.77;;;;;;;;;;5063262;28;20084;-65
2021/10/19 01:19:52;;;;;;;2.55;1.40;;;;;;;;;;5067753;28;20131;-66
2021/10/19 01:22:19;;;;;;;3.60;2.10;;;;;;;;;;5058703;28;20140;-66
2021/10/19 01:24:45;;;;;;;1.55;1.42;;;;;;;;;;5060067;28;20572;-66
2021/10/19 01:27:12;;;;;;;3.05;1.50;;;;;;;;;;5063875;28;20098;-66
2021/10/19 01:29:39;;;;;;;3.20;1.45;;;;;;;;;;5063502;28;20551;-67
2021/10/19 01:32:06;;;;;;;4.30;1.40;;;;;;;;;;5068175;28;20106;-66
2021/10/19 01:34:34;;;;;;;3.03;1.30;;;;;;;;;;5060410;28;20607;-67
2021/10/19 01:37:01;;;;;;;4.45;1.60;;;;;;;;;;5061465;28;20126;-67
2021/10/19 01:39:27;;;;;;;2.80;1.55;;;;;;;;;;5062353;28;20084;-67
2021/10/19 01:41:55;;;;;;;;;;;;;;;;;;5063804;28;20078;-66
2021/10/19 01:44:21;;;;;;;3.78;1.58;;;;;;;;;;5066080;28;19966;-66
2021/10/19 01:46:48;;;;;;;2.00;1.30;;;;;;;;;;5065422;28;20132;-66
2021/10/19 01:49:14;;;;;;;2.78;1.42;;;;;;;;;;5066600;28;20059;-66
2021/10/19 01:51:41;;;;;;;3.38;1.73;;;;;;;;;;5064249;28;20087;-66
2021/10/19 01:54:07;;;;;;;2.90;1.30;;;;;;;;;;5061948;28;20095;-66
2021/10/19 01:56:34;;;;;;;5.77;1.23;;;;;;;;;;5055804;28;20120;-65
2021/10/19 01:59:00;;;;;;;2.42;1.52;;;;;;;;;;5058577;28;20322;-66
2021/10/19 02:01:27;;;;;;;1.80;1.15;;;;;;;;;;5060441;28;20127;-65
2021/10/19 02:03:54;;;;;;;7.45;2.20;;;;;;;;;;5060062;28;20102;-66
2021/10/19 02:06:20;;;;;;;2.67;1.20;;;;;;;;;;5064170;28;20049;-66
2021/10/19 02:08:46;;;;;;;2.90;1.30;;;;;;;;;;5061892;28;20091;-66
2021/10/19 02:11:13;;;;;;;4.80;1.50;;;;;;;;;;5063337;28;20139;-66
2021/10/19 02:13:40;;;;;;;3.45;1.50;;;;;;;;;;5064021;28;20120;-66
2021/10/19 02:16:06;;;;;;;4.78;1.55;;;;;;;;;;5065668;28;20129;-66
2021/10/19 02:18:32;;;;;;;2.92;1.70;;;;;;;;;;5063997;28;20146;-65
2021/10/19 02:20:59;;;;;;;2.55;1.70;;;;;;;;;;5066610;28;20163;-65
2021/10/19 02:23:25;;;;;;;3.75;1.90;;;;;;;;;;5059960;28;20091;-66
2021/10/19 02:25:52;;;;;;;3.10;1.85;;;;;;;;;;5056943;28;20463;-65
2021/10/19 02:28:19;;;;;;;4.53;1.73;;;;;;;;;;5056943;28;20095;-65
2021/10/19 02:30:45;;;;;;;1.95;1.50;;;;;;;;;;5063266;28;20151;-66
2021/10/19 02:33:12;;;;;;;2.22;1.20;;;;;;;;;;5057836;28;20098;-65
2021/10/19 02:35:38;;;;;;;3.88;1.73;;;;;;;;;;5064291;28;20087;-65
2021/10/19 02:38:05;;;;;;;5.75;1.80;;;;;;;;;;5061775;28;20087;-65
2021/10/19 02:40:32;;;;;;;3.30;1.60;;;;;;;;;;5063570;28;20049;-65
2021/10/19 02:42:58;;;;;;;5.07;1.50;;;;;;;;;;5062300;28;20318;-65
2021/10/19 02:45:25;;;;;;;5.55;1.63;;;;;;;;;;5063469;28;20119;-66
2021/10/19 02:47:52;;;;;;;3.00;1.90;;;;;;;;;;5060682;28;20453;-65
2021/10/19 02:50:18;;;;;;;2.97;1.67;;;;;;;;;;5064742;28;20445;-66
2021/10/19 02:52:45;;;;;;;6.53;1.95;;;;;;;;;;5060654;28;20088;-66
2021/10/19 02:55:17;;;;;;;4.13;1.60;;;;;;;;;;5045688;28;20158;-66
2021/10/19 02:57:46;;;;;;;1.83;1.50;;;;;;;;;;5063063;28;20045;-66
2021/10/19 03:00:13;;;;;;;2.72;1.73;;;;;;;;;;5063296;28;20207;-66
2021/10/19 03:02:39;;;;;;;8.00;1.77;;;;;;;;;;5062435;28;20154;-66
2021/10/19 03:05:06;;;;;;;5.43;1.63;;;;;;;;;;5064474;28;20076;-66
2021/10/19 03:07:33;;;;;;;7.88;1.75;;;;;;;;;;5060752;28;20354;-66
2021/10/19 03:10:00;;;;;;;2.22;1.42;;;;;;;;;;5060809;28;20095;-66
2021/10/19 03:12:26;;;;;;;2.33;1.63;;;;;;;;;;5061063;28;20131;-66
2021/10/19 03:14:53;;;;;;;3.97;1.30;;;;;;;;;;5060626;28;20049;-66
2021/10/19 03:17:19;;;;;;;4.07;2.05;;;;;;;;;;5058055;28;20124;-66
2021/10/19 03:19:46;;;;;;;3.60;1.90;;;;;;;;;;5043836;28;20048;-66
2021/10/19 03:22:12;;;;;;;3.63;1.60;;;;;;;;;;5043067;28;20280;-66
2021/10/19 03:24:44;;;;;;;2.88;1.52;;;;;;;;;;5042578;28;20060;-66
2021/10/19 03:27:10;;;;;;;6.15;1.67;;;;;;;;;;5045631;28;20045;-66
2021/10/19 03:29:37;;;;;;;4.57;1.48;;;;;;;;;;5041658;28;20087;-66
2021/10/19 03:32:04;;;;;;;2.65;1.30;;;;;;;;;;5044250;28;20044;-67
2021/10/19 03:34:30;;;;;;;4.45;1.60;;;;;;;;;;5047464;28;20136;-66
2021/10/19 03:36:57;;;;;;;3.47;1.80;;;;;;;;;;5042549;28;20081;-66
2021/10/19 03:39:23;;;;;;;3.55;1.60;;;;;;;;;;5045210;28;20152;-67
2021/10/19 03:41:50;;;;;;;7.70;1.70;;;;;;;;;;5052872;28;20127;-67
2021/10/19 03:44:16;;;;;;;5.95;1.70;;;;;;;;;;5042396;28;20168;-66
2021/10/19 03:46:43;;;;;;;3.05;1.70;;;;;;;;;;5045120;28;20875;-67
2021/10/19 03:49:09;;;;;;;2.40;1.42;;;;;;;;;;5046138;28;20077;-66
2021/10/19 03:51:36;;;;;;;5.45;1.55;;;;;;;;;;5048216;28;20083;-66
2021/10/19 03:54:03;;;;;;;2.13;1.50;;;;;;;;;;5042639;28;20084;-66
2021/10/19 03:56:29;;;;;;;4.05;1.80;;;;;;;;;;5045746;28;20076;-66
2021/10/19 03:58:56;;;;;;;2.30;1.50;;;;;;;;;;5049724;28;20081;-66
2021/10/19 04:01:22;;;;;;;4.78;1.90;;;;;;;;;;5043792;28;20572;-66
2021/10/19 04:03:49;;;;;;;3.72;1.58;;;;;;;;;;5052948;28;20045;-67
2021/10/19 04:06:16;;;;;;;3.97;1.15;;;;;;;;;;5044411;28;20080;-66
2021/10/19 04:08:42;;;;;;;4.22;1.45;;;;;;;;;;5047841;28;20076;-66
2021/10/19 04:11:09;;;;;;;4.93;1.20;;;;;;;;;;5043430;28;20076;-66
2021/10/19 04:13:35;;;;;;;4.40;1.50;;;;;;;;;;5047744;28;20154;-66
2021/10/19 04:16:02;;;;;;;3.22;1.25;;;;;;;;;;5046179;28;20053;-66
2021/10/19 04:18:29;;;;;;;2.47;1.33;;;;;;;;;;5058434;28;20045;-66
2021/10/19 04:20:56;;;;;;;2.63;1.40;;;;;;;;;;5068693;28;20072;-66
2021/10/19 04:23:22;;;;;;;2.45;1.35;;;;;;;;;;5067580;28;20068;-66
2021/10/19 04:25:49;;;;;;;2.00;1.50;;;;;;;;;;5070541;28;20040;-66
2021/10/19 04:28:16;;;;;;;1.65;1.13;;;;;;;;;;5063127;28;20098;-66
2021/10/19 04:30:45;;;;;;;1.95;1.25;;;;;;;;;;5064353;28;20075;-66
2021/10/19 04:33:11;;;;;;;2.60;1.10;;;;;;;;;;5063403;28;20053;-66
2021/10/19 04:35:38;;;;;;;3.38;1.15;;;;;;;;;;5064498;28;20074;-66
2021/10/19 04:38:04;;;;;;;2.55;1.38;;;;;;;;;;5064212;28;20049;-66
2021/10/19 04:40:31;;;;;;;1.88;1.10;;;;;;;;;;5066125;28;20060;-66
2021/10/19 04:42:59;;;;;;;1.60;1.20;;;;;;;;;;5065439;28;20094;-65
2021/10/19 04:45:27;;;;;;;8.45;1.40;;;;;;;;;;5064455;28;20048;-66
2021/10/19 04:47:56;;;;;;;2.28;1.38;;;;;;;;;;5068527;28;20059;-66
2021/10/19 04:50:23;;;;;;;4.20;1.73;;;;;;;;;;5064055;28;20651;-66
2021/10/19 04:52:49;;;;;;;1.58;1.40;;;;;;;;;;5060998;28;20045;-66
2021/10/19 04:55:16;;;;;;;4.75;1.45;;;;;;;;;;5062040;28;20087;-66
2021/10/19 04:57:42;;;;;;;2.05;1.50;;;;;;;;;;5069970;28;20094;-66
2021/10/19 05:00:09;;;;;;;5.35;1.63;;;;;;;;;;5060183;28;20049;-66
2021/10/19 05:02:42;;;;;;;6.63;2.00;;;;;;;;;;5061762;28;20075;-66
2021/10/19 05:05:08;;;;;;;3.20;1.70;;;;;;;;;;5063580;28;20048;-66
2021/10/19 05:07:35;;;;;;;6.80;1.92;;;;;;;;;;5065494;28;20080;-66
2021/10/19 05:10:01;;;;;;;5.47;1.80;;;;;;;;;;5064920;28;20390;-66
2021/10/19 05:12:28;;;;;;;6.70;1.88;;;;;;;;;;5067519;28;20072;-66
2021/10/19 05:14:57;;;;;;;9.50;2.50;;;;;;;;;;5065224;28;20070;-66
2021/10/19 05:17:23;;;;;;;6.35;2.10;;;;;;;;;;5067450;28;20087;-66
2021/10/19 05:19:51;;;;;;;6.15;2.40;;;;;;;;;;5068031;28;20097;-66
2021/10/19 05:22:21;;;;;;;5.40;2.17;;;;;;;;;;5062100;28;20057;-66
2021/10/19 05:24:48;;;;;;;7.70;2.20;;;;;;;;;;5065298;28;20041;-66
2021/10/19 05:27:14;;;;;;;5.43;2.23;;;;;;;;;;5061135;28;20056;-66
2021/10/19 05:29:41;;;;;;;6.72;2.70;;;;;;;;;;5063030;28;20041;-66
2021/10/19 05:32:07;;;;;;;6.40;2.90;;;;;;;;;;5062120;28;20079;-66
2021/10/19 05:34:34;;;;;;;5.75;2.55;;;;;;;;;;5064117;28;20060;-66
2021/10/19 05:37:00;;;;;;;8.38;2.90;;;;;;;;;;5060356;28;20083;-66
2021/10/19 05:39:27;;;;;;;8.25;3.30;;;;;;;;;;5066929;28;20087;-66
2021/10/19 05:41:53;;;;;;;11.73;3.30;;;;;;;;;;5063728;28;20374;-66
2021/10/19 05:44:21;;;;;;;8.93;3.13;;;;;;;;;;5062551;28;20072;-66
2021/10/19 05:46:47;;;;;;;11.02;3.13;;;;;;;;;;5069834;28;20048;-66
2021/10/19 05:49:14;;;;;;;9.03;3.80;;;;;;;;;;5059896;28;20052;-66
2021/10/19 05:51:40;;;;;;;10.80;3.58;;;;;;;;;;5056211;28;20102;-66
2021/10/19 05:54:07;;;;;;;14.02;3.67;;;;;;;;;;5064476;28;20049;-66
2021/10/19 05:56:34;;;;;;;10.93;4.15;;;;;;;;;;5063869;28;20113;-66
2021/10/19 05:59:00;;;;;;;14.38;4.20;;;;;;;;;;5062001;28;20068;-67
2021/10/19 06:01:27;;;;;;;10.13;4.05;;;;;;;;;;5061557;28;20129;-66
2021/10/19 06:03:53;;;;;;;12.98;4.55;;;;;;;;;;5058730;28;20561;-66
2021/10/19 06:06:20;;;;;;;11.52;4.20;;;;;;;;;;5060309;28;20040;-66
2021/10/19 06:08:46;;;;;;;9.65;4.00;;;;;;;;;;5062335;28;20052;-66
2021/10/19 06:11:13;;;;;;;10.15;4.45;;;;;;;;;;5060335;28;20654;-66
2021/10/19 06:13:39;;;;;;;10.00;4.20;;;;;;;;;;5058117;28;20160;-66
2021/10/19 06:16:06;;;;;;;11.45;3.80;;;;;;;;;;5061703;28;20453;-66
2021/10/19 06:18:33;;;;;;;8.32;4.03;;;;;;;;;;5062192;28;20053;-66
2021/10/19 06:20:59;;;;;;;14.93;5.10;;;;;;;;;;5061414;28;20577;-66
2021/10/19 06:23:26;;;;;;;12.18;4.70;;;;;;;;;;5062151;28;20048;-66
2021/10/19 06:25:53;;;;;;;16.95;5.15;;;;;;;;;;5059050;28;20045;-66
2021/10/19 06:28:20;;;;;;;12.80;5.07;;;;;;;;;;5060492;28;20048;-66
2021/10/19 06:30:46;;;;;;;11.35;5.38;;;;;;;;;;5063574;28;20053;-66
2021/10/19 06:33:13;;;;;;;19.77;5.70;;;;;;;;;;5067050;28;20070;-66
2021/10/19 06:35:42;;;;;;;15.77;5.75;;;;;;;;;;5065970;28;20097;-66
2021/10/19 06:38:09;;;;;;;13.85;5.78;;;;;;;;;;5059482;28;20091;-66
2021/10/19 06:40:36;;;;;;;20.08;6.30;;;;;;;;;;5060423;28;20048;-66
2021/10/19 06:43:05;;;;;;;17.58;5.35;;;;;;;;;;5060399;28;20508;-66
2021/10/19 06:45:32;;;;;;;20.45;6.32;;;;;;;;;;5060838;28;20072;-66
2021/10/19 06:47:59;;;;;;;21.50;7.25;;;;;;;;;;5060074;28;20071;-66
2021/10/19 06:50:25;;;;;;;19.83;7.32;;;;;;;;;;5059091;28;20084;-66
2021/10/19 06:52:52;;;;;;;15.75;6.55;;;;;;;;;;5064767;28;20044;-66
2021/10/19 06:55:22;;;;;;;15.52;6.57;;;;;;;;;;5059948;28;20045;-66
2021/10/19 06:57:49;;;;;;;17.25;6.55;;;;;;;;;;5062670;28;20056;-66
2021/10/19 07:00:17;;;;;;;18.13;6.55;;;;;;;;;;5063603;28;20096;-67
2021/10/19 07:02:47;;;;;;;18.55;7.43;;;;;;;;;;5065205;28;20041;-66
2021/10/19 07:05:14;;;;;;;15.35;7.13;;;;;;;;;;5058296;28;20125;-66
2021/10/19 07:07:41;;;;;;;20.23;7.32;;;;;;;;;;5055188;28;20049;-66
2021/10/19 07:10:09;;;;;;;20.25;6.45;;;;;;;;;;5069608;28;20070;-67
2021/10/19 07:12:36;;;;;;;18.98;6.57;;;;;;;;;;5067898;28;20076;-66
2021/10/19 07:15:04;;;;;;;16.52;7.15;;;;;;;;;;5067754;28;20041;-66
2021/10/19 07:17:30;;;;;;;14.27;6.47;;;;;;;;;;5059905;28;20574;-66
2021/10/19 07:19:57;;;;;;;26.63;8.60;;;;;;;;;;5069395;28;20128;-67
2021/10/19 07:22:25;;;;;;;17.83;7.07;;;;;;;;;;5064865;28;20106;-66
2021/10/19 07:24:52;;;;;;;20.45;8.38;;;;;;;;;;5069172;28;20074;-66
2021/10/19 07:27:19;;;;;;;16.48;7.45;;;;;;;;;;5067757;28;20110;-66
2021/10/19 07:29:45;;;;;;;23.08;8.18;;;;;;;;;;5068954;28;20057;-66
2021/10/19 07:32:14;;;;;;;20.92;7.80;;;;;;;;;;5065687;28;20146;-66
2021/10/19 07:34:41;;;;;;;20.27;8.00;;;;;;;;;;5062109;28;20048;-66
2021/10/19 07:37:07;;;;;;;20.00;8.32;;;;;;;;;;5070716;28;20102;-66
2021/10/19 07:39:34;;;;;;;18.00;7.37;;;;;;;;;;5068696;28;20044;-66
2021/10/19 07:42:00;;;;;;;26.23;8.60;;;;;;;;;;5067437;28;20833;-66
2021/10/19 07:44:30;;;;;;;29.08;9.32;;;;;;;;;;5069251;28;20059;-67
2021/10/19 07:46:57;;;;;;;20.90;9.43;;;;;;;;;;5065175;28;20048;-66
2021/10/19 07:49:23;;;;;;;25.85;8.73;;;;;;;;;;5067343;28;20509;-67
2021/10/19 07:51:51;;;;;;;24.75;9.50;;;;;;;;;;5064882;28;20417;-66
2021/10/19 07:54:17;;;;;;;;;;;;;;;;;;5060678;28;20493;-66
2021/10/19 07:56:43;;;;;;;19.60;7.50;;;;;;;;;;5062394;28;20028;-67
2021/10/19 07:59:10;;;;;;;22.55;8.65;;;;;;;;;;5063481;28;20044;-67
2021/10/19 08:01:37;;;;;;;23.67;9.23;;;;;;;;;;5061071;28;20084;-67
2021/10/19 08:04:04;;;;;;;25.47;9.20;;;;;;;;;;5060407;28;20500;-67
2021/10/19 08:06:30;;;;;;;24.63;8.75;;;;;;;;;;5060720;28;20111;-67
2021/10/19 08:08:57;;;;;;;22.85;8.60;;;;;;;;;;5063325;28;20119;-67
2021/10/19 08:11:24;;;;;;;23.65;10.20;;;;;;;;;;5065332;28;20087;-66
2021/10/19 08:13:53;;;;;;;24.30;9.73;;;;;;;;;;5061586;28;20052;-66
2021/10/19 08:16:20;;;;;;;25.02;10.60;;;;;;;;;;5064859;28;20103;-66
2021/10/19 08:18:47;;;;;;;23.70;10.10;;;;;;;;;;5058963;28;20092;-66
2021/10/19 08:21:13;;;;;;;26.45;9.23;;;;;;;;;;5065601;28;20087;-67
2021/10/19 08:23:40;;;;;;;36.92;9.95;;;;;;;;;;5062056;28;20045;-66
2021/10/19 08:26:06;;;;;;;26.35;9.90;;;;;;;;;;5065263;28;20512;-67
2021/10/19 08:28:34;;;;;;;26.50;10.50;;;;;;;;;;5060014;28;20122;-67
2021/10/19 08:31:00;;;;;;;;;;;;;;;;;;5066114;28;20080;-67
2021/10/19 08:33:27;;;;;;;29.10;10.52;;;;;;;;;;5066836;28;20399;-66
2021/10/19 08:35:53;;;;;;;27.48;10.45;;;;;;;;;;5064822;28;20044;-67
2021/10/19 08:38:20;;;;;;;21.23;9.32;;;;;;;;;;5064576;28;20073;-66
2021/10/19 08:40:47;;;;;;;33.22;11.23;;;;;;;;;;5064291;28;20386;-66
2021/10/19 08:43:14;;;;;;;32.13;12.32;;;;;;;;;;5065578;28;20056;-66
2021/10/19 08:45:41;;;;;;;30.63;11.85;;;;;;;;;;5064782;28;20045;-67
2021/10/19 08:48:09;;;;;;;32.08;13.27;;;;;;;;;;5059027;28;20044;-67
2021/10/19 08:50:36;;;;;;;36.22;13.68;;;;;;;;;;5062860;28;20076;-67
2021/10/19 08:53:03;;;;;;;31.52;13.43;;;;;;;;;;5063276;28;20107;-66
2021/10/19 08:55:29;;;;;;;37.72;13.55;;;;;;;;;;5067168;28;20102;-67
2021/10/19 08:58:02;;;;;;;32.50;12.27;;;;;;;;;;5065866;28;20088;-66
2021/10/19 09:00:31;;;;;;;34.95;13.15;;;;;;;;;;5064117;28;20103;-67
2021/10/19 09:02:57;;;;;;;39.03;13.02;;;;;;;;;;5067671;28;20087;-67
2021/10/19 09:05:25;;;;;;;28.70;13.13;;;;;;;;;;5067244;28;20053;-66
2021/10/19 09:07:52;;;;;;;38.88;14.15;;;;;;;;;;5061566;28;20095;-67
2021/10/19 09:10:19;;;;;;;31.83;13.98;;;;;;;;;;5062161;28;20049;-67
2021/10/19 09:12:55;;;;;;;28.40;12.70;;;;;;;;;;5064481;28;20091;-66
2021/10/19 09:15:26;;;;;;;28.80;13.60;;;;;;;;;;5064828;28;20040;-67
2021/10/19 09:17:53;;;;;;;33.05;13.70;;;;;;;;;;5068296;28;20084;-66
2021/10/19 09:20:19;;;;;;;29.63;15.35;;;;;;;;;;5067494;28;20408;-67
2021/10/19 09:23:00;;;;;;;29.25;13.75;;;;;;;;;;5065799;28;20097;-67
2021/10/19 09:25:31;;;;;;;34.05;13.95;;;;;;;;;;5058765;28;20087;-67
2021/10/19 09:28:01;;;;;;;30.35;14.15;;;;;;;;;;5064533;28;20075;-67
2021/10/19 09:30:31;;;;;;;32.50;14.55;;;;;;;;;;5062487;28;20049;-67
2021/10/19 09:32:58;;;;;;;32.53;13.20;;;;;;;;;;5060026;28;20151;-67
2021/10/19 09:35:25;;;;;;;33.43;15.40;;;;;;;;;;5060948;28;20084;-67
2021/10/19 09:37:55;;;;;;;36.50;15.07;;;;;;;;;;5057261;28;20071;-67
2021/10/19 09:40:29;;;;;;;38.67;15.75;;;;;;;;;;5064748;28;20103;-67
2021/10/19 09:42:59;;;;;;;31.08;14.32;;;;;;;;;;5058648;28;20081;-67
2021/10/19 09:45:27;;;;;;;35.20;16.38;;;;;;;;;;5058302;28;20501;-67
2021/10/19 09:47:55;;;;;;;32.30;16.20;;;;;;;;;;5058772;28;20083;-67
2021/10/19 09:50:22;;;;;;;35.80;15.30;;;;;;;;;;5061550;28;20287;-67
2021/10/19 09:52:50;;;;;;;33.75;14.60;;;;;;;;;;5065341;28;20045;-67
2021/10/19 09:55:16;;;;;;;34.42;15.95;;;;;;;;;;5066347;28;20045;-67
2021/10/19 09:57:43;;;;;;;39.10;15.10;;;;;;;;;;5063716;28;20079;-67
2021/10/19 10:00:10;;;;;;;39.55;14.77;;;;;;;;;;5065395;28;20071;-67
2021/10/19 10:02:37;;;;;;;32.88;15.30;;;;;;;;;;5062014;28;20466;-67
2021/10/19 10:05:05;;;;;;;25.95;13.00;;;;;;;;;;5055402;28;20421;-67
2021/10/19 10:07:34;;;;;;;28.58;15.05;;;;;;;;;;5060046;28;20048;-67
2021/10/19 10:10:01;;;;;;;35.08;15.77;;;;;;;;;;5063344;28;20049;-66
2021/10/19 10:12:28;;;;;;;28.20;14.38;;;;;;;;;;5063051;28;20458;-67
2021/10/19 10:14:54;;;;;;;29.75;14.18;;;;;;;;;;5066871;28;20075;-67
2021/10/19 10:17:21;;;;;;;28.45;13.85;;;;;;;;;;5063435;28;20094;-67
2021/10/19 10:19:48;;;;;;;25.65;13.20;;;;;;;;;;5065226;28;20151;-67
2021/10/19 10:22:19;;;;;;;27.73;13.60;;;;;;;;;;5062339;28;20420;-67
2021/10/19 10:24:46;;;;;;;23.20;12.18;;;;;;;;;;5063296;28;20052;-67
2021/10/19 10:27:14;;;;;;;23.25;12.25;;;;;;;;;;5065050;28;20052;-67
2021/10/19 10:29:45;;;;;;;22.65;11.98;;;;;;;;;;5060721;28;20069;-67
2021/10/19 10:32:20;;;;;;;27.30;11.23;;;;;;;;;;5067693;28;20076;-67
2021/10/19 10:35:19;;;;;;;20.50;11.57;;;;;;;;;;5065293;28;20099;-67
2021/10/19 10:37:53;;;;;;;21.58;11.73;;;;;;;;;;5060732;28;20110;-67
2021/10/19 10:40:29;;;;;;;20.45;9.40;;;;;;;;;;5060204;28;20087;-67
2021/10/19 10:42:56;;;;;;;18.70;9.48;;;;;;;;;;5064594;28;20048;-67
2021/10/19 10:45:27;;;;;;;15.95;9.13;;;;;;;;;;5060305;28;20048;-67
2021/10/19 10:47:56;;;;;;;13.55;9.05;;;;;;;;;;5061962;28;20049;-67
2021/10/19 10:50:23;;;;;;;14.43;8.55;;;;;;;;;;5064785;28;20107;-67
2021/10/19 10:53:00;;;;;;;21.30;10.88;;;;;;;;;;5057996;28;20068;-67
2021/10/19 10:55:27;;;;;;;16.58;9.00;;;;;;;;;;5057903;28;20099;-67
2021/10/19 10:57:54;;;;;;;18.35;8.63;;;;;;;;;;5062846;28;20091;-66
2021/10/19 11:00:24;;;;;;;14.48;8.80;;;;;;;;;;5060857;28;20045;-67
2021/10/19 11:03:09;;;;;;;14.65;8.50;;;;;;;;;;5063998;28;20429;-67
2021/10/19 11:05:36;;;;;;;16.90;8.98;;;;;;;;;;5062048;28;20053;-67
2021/10/19 11:08:03;;;;;;;12.60;7.65;;;;;;;;;;5063366;28;20098;-67
2021/10/19 11:10:30;;;;;;;13.15;8.43;;;;;;;;;;5061781;28;20508;-67
2021/10/19 11:13:01;;;;;;;12.00;7.60;;;;;;;;;;5063906;28;20091;-67
2021/10/19 11:15:29;;;;;;;10.68;7.90;;;;;;;;;;5062381;28;20497;-67
2021/10/19 11:17:57;;;;;;;11.68;7.50;;;;;;;;;;5063979;28;20088;-67
2021/10/19 11:20:25;;;;;;;12.95;7.72;;;;;;;;;;5068433;28;20468;-67
2021/10/19 11:22:52;;;;;;;13.48;7.47;;;;;;;;;;5059716;28;20080;-67
2021/10/19 11:25:20;;;;;;;10.73;7.57;;;;;;;;;;5060916;28;20076;-67
2021/10/19 11:27:48;;;;;;;13.90;7.53;;;;;;;;;;5059212;28;20053;-67
2021/10/19 11:30:15;;;;;;;11.23;7.13;;;;;;;;;;5055119;28;20076;-67
2021/10/19 11:32:41;;;;;;;10.55;7.63;;;;;;;;;;5060722;28;20045;-68
2021/10/19 11:35:09;;;;;;;13.23;8.32;;;;;;;;;;5063070;28;20056;-67
2021/10/19 11:37:36;;;;;;;14.38;7.53;;;;;;;;;;5061323;28;20531;-67
2021/10/19 11:40:04;;;;;;;16.27;8.45;;;;;;;;;;5059108;28;20520;-67
2021/10/19 11:42:30;;;;;;;;;;;;;;;;;;5065710;28;20056;-67
2021/10/19 11:44:57;;;;;;;17.80;8.80;;;;;;;;;;5059357;28;20293;-67
2021/10/19 11:47:23;;;;;;;17.30;9.35;;;;;;;;;;5058844;28;20056;-67
2021/10/19 11:49:50;;;;;;;15.23;9.38;;;;;;;;;;5057793;28;20079;-67
2021/10/19 11:52:16;;;;;;;12.33;8.23;;;;;;;;;;5061622;28;20520;-67
2021/10/19 11:54:43;;;;;;;13.38;8.80;;;;;;;;;;5060824;28;20087;-67
2021/10/19 11:57:10;;;;;;;15.52;8.40;;;;;;;;;;5066396;28;20115;-67
2021/10/19 11:59:40;;;;;;;15.23;8.25;;;;;;;;;;5066766;28;20075;-67
2021/10/19 12:02:07;;;;;;;13.35;8.52;;;;;;;;;;5064146;28;20098;-67
2021/10/19 12:04:41;;;;;;;13.05;8.75;;;;;;;;;;5060117;28;20045;-67
2021/10/19 12:07:08;;;;;;;11.50;8.32;;;;;;;;;;5063222;28;20134;-67
2021/10/19 12:09:36;;;;;;;13.95;8.02;;;;;;;;;;5059257;28;20056;-67
2021/10/19 12:12:04;;;;;;;12.75;8.57;;;;;;;;;;5064511;28;20048;-67
2021/10/19 12:14:32;;;;;;;13.63;8.43;;;;;;;;;;5067807;28;20091;-67
2021/10/19 12:17:00;;;;;;;15.55;8.90;;;;;;;;;;5060614;28;20049;-67
2021/10/19 12:19:28;;;;;;;14.95;8.80;;;;;;;;;;5062529;28;20108;-68
2021/10/19 12:21:56;;;;;;;14.75;8.55;;;;;;;;;;5063054;28;20087;-68
2021/10/19 12:24:23;;;;;;;17.45;8.27;;;;;;;;;;5068151;28;20068;-67
2021/10/19 12:26:58;;;;;;;14.70;7.78;;;;;;;;;;5062576;28;20076;-68
2021/10/19 12:29:25;;;;;;;13.23;8.52;;;;;;;;;;5066607;28;20086;-68
2021/10/19 12:31:51;;;;;;;17.77;9.23;;;;;;;;;;5064024;28;20072;-67
2021/10/19 12:34:23;;;;;;;17.27;9.55;;;;;;;;;;5063920;28;20562;-68
2021/10/19 12:36:50;;;;;;;14.55;8.73;;;;;;;;;;5061942;28;20049;-68
2021/10/19 12:39:16;;;;;;;13.75;9.35;;;;;;;;;;5066263;28;20087;-67
2021/10/19 12:41:43;;;;;;;18.20;10.07;;;;;;;;;;5068812;28;20550;-67
2021/10/19 12:44:10;;;;;;;;;;;;;;;;;;5068465;28;20094;-67
2021/10/19 12:46:37;;;;;;;21.10;10.02;;;;;;;;;;5064405;28;19928;-67
2021/10/19 12:49:05;;;;;;;18.13;10.20;;;;;;;;;;5065547;28;20037;-68
2021/10/19 12:51:32;;;;;;;17.58;10.43;;;;;;;;;;5066307;28;20074;-68
2021/10/19 12:53:59;;;;;;;19.77;11.05;;;;;;;;;;5064680;28;20404;-68
2021/10/19 12:56:27;;;;;;;19.13;10.95;;;;;;;;;;5066782;28;20149;-67
2021/10/19 12:58:55;;;;;;;23.85;11.55;;;;;;;;;;5064799;28;20052;-67
2021/10/19 13:01:21;;;;;;;18.77;11.07;;;;;;;;;;5065800;28;20497;-67
2021/10/19 13:03:49;;;;;;;17.25;11.23;;;;;;;;;;5065718;28;20536;-68
2021/10/19 13:06:16;;;;;;;23.80;11.85;;;;;;;;;;5061194;28;20501;-67
2021/10/19 13:08:44;;;;;;;24.50;13.00;;;;;;;;;;5060078;28;20425;-68
2021/10/19 13:11:10;;;;;;;25.33;13.73;;;;;;;;;;5061038;28;20106;-67
2021/10/19 13:13:37;;;;;;;21.48;12.90;;;;;;;;;;5066599;28;20462;-67
2021/10/19 13:16:04;;;;;;;25.23;13.23;;;;;;;;;;5063770;28;20036;-67
2021/10/19 13:18:33;;;;;;;21.97;13.00;;;;;;;;;;5064932;28;20044;-67
2021/10/19 13:21:00;;;;;;;25.45;14.25;;;;;;;;;;5062661;28;20044;-67
2021/10/19 13:23:28;;;;;;;24.63;14.15;;;;;;;;;;5065894;28;20056;-68
2021/10/19 13:25:55;;;;;;;24.15;13.57;;;;;;;;;;5063214;28;20498;-67
2021/10/19 13:28:22;;;;;;;24.17;13.27;;;;;;;;;;5060582;28;20083;-67
2021/10/19 13:30:49;;;;;;;26.73;15.52;;;;;;;;;;5061039;28;20044;-67
2021/10/19 13:33:16;;;;;;;27.98;15.88;;;;;;;;;;5064359;28;20131;-67
2021/10/19 13:35:44;;;;;;;30.60;16.45;;;;;;;;;;5060495;28;20099;-67
2021/10/19 13:38:10;;;;;;;27.10;16.40;;;;;;;;;;5066876;28;20044;-67
2021/10/19 13:40:37;;;;;;;30.17;16.67;;;;;;;;;;5064118;28;20492;-68
2021/10/19 13:43:04;;;;;;;30.65;16.05;;;;;;;;;;5064843;28;20381;-68
2021/10/19 13:45:31;;;;;;;30.50;17.58;;;;;;;;;;5061435;28;20053;-67
2021/10/19 13:47:57;;;;;;;40.23;18.03;;;;;;;;;;5066075;28;20050;-68
2021/10/19 13:50:24;;;;;;;29.40;17.25;;;;;;;;;;5066114;28;20056;-67
2021/10/19 13:52:51;;;;;;;32.83;17.90;;;;;;;;;;5059284;28;20040;-68
2021/10/19 13:55:17;;;;;;;27.05;16.35;;;;;;;;;;5063020;28;20083;-67
2021/10/19 13:57:44;;;;;;;28.52;16.63;;;;;;;;;;5063303;28;20064;-68
2021/10/19 14:00:12;;;;;;;34.05;17.67;;;;;;;;;;5066150;28;20041;-68
2021/10/19 14:02:40;;;;;;;29.60;18.10;;;;;;;;;;5065107;28;20098;-67
2021/10/19 14:05:07;;;;;;;31.95;18.52;;;;;;;;;;5063939;28;20052;-67
2021/10/19 14:07:37;;;;;;;32.63;17.70;;;;;;;;;;5061510;28;20081;-67
2021/10/19 14:10:04;;;;;;;30.40;18.25;;;;;;;;;;5047010;28;20373;-67
2021/10/19 14:12:31;;;;;;;36.03;19.02;;;;;;;;;;5065437;28;20101;-67
2021/10/19 14:14:57;;;;;;;27.58;16.85;;;;;;;;;;5061437;28;20095;-67
2021/10/19 14:17:26;;;;;;;27.42;16.20;;;;;;;;;;5063635;28;20052;-67
2021/10/19 14:19:52;;;;;;;27.50;17.20;;;;;;;;;;5049918;28;20547;-67
2021/10/19 14:22:19;;;;;;;26.25;16.48;;;;;;;;;;5063163;28;20087;-67
2021/10/19 14:24:46;;;;;;;27.35;17.63;;;;;;;;;;5061823;28;20144;-67
2021/10/19 14:27:13;;;;;;;30.35;17.75;;;;;;;;;;5063479;28;20266;-67
2021/10/19 14:29:41;;;;;;;26.33;15.77;;;;;;;;;;5060113;28;20140;-67
2021/10/19 14:32:08;;;;;;;29.42;16.38;;;;;;;;;;5059840;28;20520;-67
2021/10/19 14:34:35;;;;;;;25.77;16.75;;;;;;;;;;5044367;28;20049;-68